sensor_id;sensor_type;location;lat;lon;timestamp;pressure;altitude;pressure_sealevel;temperature;humidity
33845;BME280;20145;43.118;25.694;2023-09-19T00:00:43;99833.25;;;15.92;86.35
33845;BME280;20145;43.118;25.694;2023-09-19T00:03:10;99818.50;;;15.93;84.83
33845;BME280;20145;43.118;25.694;2023-09-19T00:05:38;99824.59;;;15.92;83.91
33845;BME280;20145;43.118;25.694;2023-09-19T00:08:04;99829.75;;;15.93;85.34
33845;BME280;20145;43.118;25.694;2023-09-19T00:10:30;99812.25;;;15.98;84.80
33845;BME280;20145;43.118;25.694;2023-09-19T00:13:01;99833.69;;;16.08;83.95
33845;BME280;20145;43.118;25.694;2023-09-19T00:15:36;99834.63;;;16.05;84.06
33845;BME280;20145;43.118;25.694;2023-09-19T00:18:03;99822.38;;;16.09;84.56
33845;BME280;20145;43.118;25.694;2023-09-19T00:20:29;99812.97;;;16.05;84.50
33845;BME280;20145;43.118;25.694;2023-09-19T00:22:55;99820.06;;;15.98;84.40
33845;BME280;20145;43.118;25.694;2023-09-19T00:25:21;99821.44;;;15.80;84.22
33845;BME280;20145;43.118;25.694;2023-09-19T00:27:47;99815.25;;;15.84;85.48
33845;BME280;20145;43.118;25.694;2023-09-19T00:30:17;99827.31;;;15.87;83.95
33845;BME280;20145;43.118;25.694;2023-09-19T00:32:47;99820.41;;;15.86;85.46
33845;BME280;20145;43.118;25.694;2023-09-19T00:35:14;99819.78;;;15.76;85.54
33845;BME280;20145;43.118;25.694;2023-09-19T00:37:41;99826.00;;;15.72;84.35
33845;BME280;20145;43.118;25.694;2023-09-19T00:40:08;99816.44;;;15.73;85.68
33845;BME280;20145;43.118;25.694;2023-09-19T00:42:57;99823.22;;;15.78;84.87
33845;BME280;20145;43.118;25.694;2023-09-19T00:45:25;99813.00;;;15.71;85.06
33845;BME280;20145;43.118;25.694;2023-09-19T00:47:51;99818.28;;;15.69;85.48
33845;BME280;20145;43.118;25.694;2023-09-19T00:50:18;99822.78;;;15.61;85.01
33845;BME280;20145;43.118;25.694;2023-09-19T00:52:46;99825.34;;;15.27;84.19
33845;BME280;20145;43.118;25.694;2023-09-19T00:55:13;99826.41;;;15.20;86.90
33845;BME280;20145;43.118;25.694;2023-09-19T00:57:40;99822.63;;;14.97;86.41
33845;BME280;20145;43.118;25.694;2023-09-19T01:00:07;99826.91;;;15.00;89.70
33845;BME280;20145;43.118;25.694;2023-09-19T01:02:36;99816.38;;;15.04;88.64
33845;BME280;20145;43.118;25.694;2023-09-19T01:05:02;99818.13;;;15.04;88.74
33845;BME280;20145;43.118;25.694;2023-09-19T01:07:30;99821.31;;;15.15;88.21
33845;BME280;20145;43.118;25.694;2023-09-19T01:09:57;99807.50;;;15.13;88.23
33845;BME280;20145;43.118;25.694;2023-09-19T01:21:23;99806.59;;;15.50;86.23
33845;BME280;20145;43.118;25.694;2023-09-19T01:29:33;99800.03;;;15.35;83.93
33845;BME280;20145;43.118;25.694;2023-09-19T01:32:03;99799.41;;;15.25;85.11
33845;BME280;20145;43.118;25.694;2023-09-19T01:34:49;99795.00;;;15.29;88.19
33845;BME280;20145;43.118;25.694;2023-09-19T01:37:18;99799.66;;;15.16;85.92
33845;BME280;20145;43.118;25.694;2023-09-19T01:39:58;99796.31;;;15.11;85.10
33845;BME280;20145;43.118;25.694;2023-09-19T01:47:55;99776.66;;;14.99;88.18
33845;BME280;20145;43.118;25.694;2023-09-19T01:50:39;99781.00;;;14.99;87.51
33845;BME280;20145;43.118;25.694;2023-09-19T01:53:15;99770.34;;;14.73;87.09
33845;BME280;20145;43.118;25.694;2023-09-19T01:55:48;99769.78;;;14.61;87.83
33845;BME280;20145;43.118;25.694;2023-09-19T01:58:32;99772.25;;;14.65;89.27
33845;BME280;20145;43.118;25.694;2023-09-19T02:01:00;99773.16;;;14.64;87.62
33845;BME280;20145;43.118;25.694;2023-09-19T02:03:27;99771.56;;;14.59;87.19
33845;BME280;20145;43.118;25.694;2023-09-19T02:05:54;99776.88;;;14.51;88.16
33845;BME280;20145;43.118;25.694;2023-09-19T02:08:21;99761.66;;;14.34;88.54
33845;BME280;20145;43.118;25.694;2023-09-19T02:10:50;99763.28;;;14.40;88.73
33845;BME280;20145;43.118;25.694;2023-09-19T02:13:19;99764.88;;;14.45;90.33
33845;BME280;20145;43.118;25.694;2023-09-19T02:15:45;99751.06;;;14.45;88.61
33845;BME280;20145;43.118;25.694;2023-09-19T02:18:12;99758.22;;;14.34;87.23
33845;BME280;20145;43.118;25.694;2023-09-19T02:20:38;99769.63;;;14.26;88.44
33845;BME280;20145;43.118;25.694;2023-09-19T02:23:04;99760.84;;;14.32;89.48
33845;BME280;20145;43.118;25.694;2023-09-19T02:25:30;99742.31;;;14.09;88.72
33845;BME280;20145;43.118;25.694;2023-09-19T02:27:57;99754.88;;;14.28;89.75
33845;BME280;20145;43.118;25.694;2023-09-19T02:30:24;99766.78;;;14.37;89.15
33845;BME280;20145;43.118;25.694;2023-09-19T02:32:53;99752.13;;;14.35;90.02
33845;BME280;20145;43.118;25.694;2023-09-19T02:35:19;99759.50;;;14.55;89.70
33845;BME280;20145;43.118;25.694;2023-09-19T02:37:48;99754.28;;;14.56;88.44
33845;BME280;20145;43.118;25.694;2023-09-19T02:40:15;99747.84;;;14.72;88.78
33845;BME280;20145;43.118;25.694;2023-09-19T02:42:55;99737.16;;;14.47;85.79
33845;BME280;20145;43.118;25.694;2023-09-19T02:45:21;99748.13;;;14.60;87.47
33845;BME280;20145;43.118;25.694;2023-09-19T02:47:48;99743.91;;;14.56;87.86
33845;BME280;20145;43.118;25.694;2023-09-19T02:50:14;99750.47;;;14.71;88.73
33845;BME280;20145;43.118;25.694;2023-09-19T02:52:42;99747.28;;;14.60;86.41
33845;BME280;20145;43.118;25.694;2023-09-19T02:55:12;99742.94;;;14.60;88.36
33845;BME280;20145;43.118;25.694;2023-09-19T02:57:46;99738.81;;;14.50;88.10
33845;BME280;20145;43.118;25.694;2023-09-19T03:00:12;99733.63;;;14.50;88.20
33845;BME280;20145;43.118;25.694;2023-09-19T03:02:38;99734.47;;;14.50;87.02
33845;BME280;20145;43.118;25.694;2023-09-19T03:05:06;99746.53;;;14.55;86.64
33845;BME280;20145;43.118;25.694;2023-09-19T03:07:33;99747.25;;;14.61;87.06
33845;BME280;20145;43.118;25.694;2023-09-19T03:09:59;99750.78;;;14.57;86.43
33845;BME280;20145;43.118;25.694;2023-09-19T03:12:26;99746.41;;;14.61;87.23
33845;BME280;20145;43.118;25.694;2023-09-19T03:14:52;99732.66;;;14.56;87.36
33845;BME280;20145;43.118;25.694;2023-09-19T03:17:17;99736.13;;;14.55;86.38
33845;BME280;20145;43.118;25.694;2023-09-19T03:19:45;99737.00;;;14.55;88.12
33845;BME280;20145;43.118;25.694;2023-09-19T03:22:13;99739.69;;;14.49;84.50
33845;BME280;20145;43.118;25.694;2023-09-19T03:24:39;99750.44;;;14.34;85.43
33845;BME280;20145;43.118;25.694;2023-09-19T03:27:05;99746.94;;;14.35;86.38
33845;BME280;20145;43.118;25.694;2023-09-19T03:29:30;99760.06;;;14.28;85.52
33845;BME280;20145;43.118;25.694;2023-09-19T03:31:56;99759.56;;;14.11;87.27
33845;BME280;20145;43.118;25.694;2023-09-19T03:34:22;99763.66;;;14.23;89.55
33845;BME280;20145;43.118;25.694;2023-09-19T03:36:47;99761.75;;;14.29;88.20
33845;BME280;20145;43.118;25.694;2023-09-19T03:39:13;99766.03;;;14.32;87.25
33845;BME280;20145;43.118;25.694;2023-09-19T03:41:41;99772.66;;;14.47;88.86
33845;BME280;20145;43.118;25.694;2023-09-19T03:44:07;99767.69;;;14.36;88.00
33845;BME280;20145;43.118;25.694;2023-09-19T03:46:32;99766.09;;;14.29;88.19
33845;BME280;20145;43.118;25.694;2023-09-19T03:49:00;99770.72;;;14.16;87.83
33845;BME280;20145;43.118;25.694;2023-09-19T03:51:26;99773.34;;;14.13;88.61
33845;BME280;20145;43.118;25.694;2023-09-19T03:53:52;99776.69;;;14.20;89.11
33845;BME280;20145;43.118;25.694;2023-09-19T03:56:17;99762.59;;;13.91;87.87
33845;BME280;20145;43.118;25.694;2023-09-19T03:58:43;99781.31;;;14.05;89.14
33845;BME280;20145;43.118;25.694;2023-09-19T04:01:08;99782.88;;;14.13;89.80
33845;BME280;20145;43.118;25.694;2023-09-19T04:03:35;99781.97;;;14.15;89.59
33845;BME280;20145;43.118;25.694;2023-09-19T04:06:14;99787.03;;;14.21;88.82
33845;BME280;20145;43.118;25.694;2023-09-19T04:08:40;99777.03;;;14.03;87.49
33845;BME280;20145;43.118;25.694;2023-09-19T04:11:06;99775.91;;;14.16;88.16
33845;BME280;20145;43.118;25.694;2023-09-19T04:13:32;99775.38;;;13.99;87.00
33845;BME280;20145;43.118;25.694;2023-09-19T04:15:58;99771.84;;;14.03;89.49
33845;BME280;20145;43.118;25.694;2023-09-19T04:18:25;99777.81;;;14.08;90.61
33845;BME280;20145;43.118;25.694;2023-09-19T04:20:51;99783.63;;;14.19;90.70
33845;BME280;20145;43.118;25.694;2023-09-19T04:23:17;99776.41;;;14.34;89.45
33845;BME280;20145;43.118;25.694;2023-09-19T04:25:45;99780.34;;;14.53;89.53
33845;BME280;20145;43.118;25.694;2023-09-19T04:28:11;99779.72;;;14.79;88.51
33845;BME280;20145;43.118;25.694;2023-09-19T04:30:39;99787.78;;;15.06;87.20
33845;BME280;20145;43.118;25.694;2023-09-19T04:33:07;99788.44;;;15.14;84.63
33845;BME280;20145;43.118;25.694;2023-09-19T04:35:34;99773.25;;;15.33;86.06
33845;BME280;20145;43.118;25.694;2023-09-19T04:38:00;99751.53;;;15.34;83.36
33845;BME280;20145;43.118;25.694;2023-09-19T04:40:26;99769.34;;;15.49;84.98
33845;BME280;20145;43.118;25.694;2023-09-19T04:42:55;99764.91;;;15.53;85.13
33845;BME280;20145;43.118;25.694;2023-09-19T04:45:24;99753.69;;;15.51;86.31
33845;BME280;20145;43.118;25.694;2023-09-19T04:47:50;99758.50;;;15.65;87.16
33845;BME280;20145;43.118;25.694;2023-09-19T04:50:16;99751.81;;;15.89;86.05
33845;BME280;20145;43.118;25.694;2023-09-19T04:52:43;99754.56;;;16.14;85.89
33845;BME280;20145;43.118;25.694;2023-09-19T04:55:15;99751.88;;;16.17;85.46
33845;BME280;20145;43.118;25.694;2023-09-19T04:57:45;99751.56;;;16.27;84.47
33845;BME280;20145;43.118;25.694;2023-09-19T05:00:19;99761.47;;;16.44;85.43
33845;BME280;20145;43.118;25.694;2023-09-19T05:02:52;99760.00;;;16.64;83.52
33845;BME280;20145;43.118;25.694;2023-09-19T05:05:20;99766.47;;;16.80;84.24
33845;BME280;20145;43.118;25.694;2023-09-19T05:07:47;99770.41;;;16.93;83.91
33845;BME280;20145;43.118;25.694;2023-09-19T05:10:14;99769.78;;;17.12;82.19
33845;BME280;20145;43.118;25.694;2023-09-19T05:12:40;99768.16;;;17.34;80.07
33845;BME280;20145;43.118;25.694;2023-09-19T05:15:07;99767.78;;;17.45;81.51
33845;BME280;20145;43.118;25.694;2023-09-19T05:17:34;99749.63;;;17.42;82.23
33845;BME280;20145;43.118;25.694;2023-09-19T05:20:01;99775.13;;;17.59;81.55
33845;BME280;20145;43.118;25.694;2023-09-19T05:22:40;99767.88;;;17.67;80.38
33845;BME280;20145;43.118;25.694;2023-09-19T05:25:07;99759.84;;;17.73;80.08
33845;BME280;20145;43.118;25.694;2023-09-19T05:27:32;99759.56;;;17.82;79.94
33845;BME280;20145;43.118;25.694;2023-09-19T05:29:59;99752.22;;;17.92;80.46
33845;BME280;20145;43.118;25.694;2023-09-19T05:32:25;99750.31;;;17.97;79.78
33845;BME280;20145;43.118;25.694;2023-09-19T05:34:51;99762.44;;;17.98;80.32
33845;BME280;20145;43.118;25.694;2023-09-19T05:37:21;99761.31;;;18.05;79.85
33845;BME280;20145;43.118;25.694;2023-09-19T05:39:48;99758.81;;;18.02;80.11
33845;BME280;20145;43.118;25.694;2023-09-19T05:42:14;99762.81;;;18.13;80.12
33845;BME280;20145;43.118;25.694;2023-09-19T05:44:40;99755.00;;;18.11;80.31
33845;BME280;20145;43.118;25.694;2023-09-19T05:47:05;99747.69;;;18.21;79.76
33845;BME280;20145;43.118;25.694;2023-09-19T05:49:35;99753.69;;;18.23;80.60
33845;BME280;20145;43.118;25.694;2023-09-19T05:52:05;99742.81;;;18.12;80.79
33845;BME280;20145;43.118;25.694;2023-09-19T05:54:30;99760.41;;;18.06;81.08
33845;BME280;20145;43.118;25.694;2023-09-19T05:56:56;99752.41;;;18.11;81.07
33845;BME280;20145;43.118;25.694;2023-09-19T05:59:23;99743.13;;;18.26;81.32
33845;BME280;20145;43.118;25.694;2023-09-19T06:01:49;99759.06;;;18.42;81.69
33845;BME280;20145;43.118;25.694;2023-09-19T06:04:14;99750.81;;;18.53;80.38
33845;BME280;20145;43.118;25.694;2023-09-19T06:06:40;99733.38;;;18.53;79.61
33845;BME280;20145;43.118;25.694;2023-09-19T06:09:06;99757.44;;;18.61;80.28
33845;BME280;20145;43.118;25.694;2023-09-19T06:11:35;99760.97;;;18.60;78.56
33845;BME280;20145;43.118;25.694;2023-09-19T06:14:02;99753.97;;;18.61;79.54
33845;BME280;20145;43.118;25.694;2023-09-19T06:16:29;99754.03;;;18.59;79.10
33845;BME280;20145;43.118;25.694;2023-09-19T06:18:55;99751.38;;;18.61;78.88
33845;BME280;20145;43.118;25.694;2023-09-19T06:21:23;99754.56;;;18.67;79.39
33845;BME280;20145;43.118;25.694;2023-09-19T06:23:49;99750.88;;;18.73;79.63
33845;BME280;20145;43.118;25.694;2023-09-19T06:26:15;99761.78;;;18.84;78.59
33845;BME280;20145;43.118;25.694;2023-09-19T06:28:40;99750.13;;;18.93;78.23
33845;BME280;20145;43.118;25.694;2023-09-19T06:31:06;99751.91;;;19.13;77.99
33845;BME280;20145;43.118;25.694;2023-09-19T06:33:38;99746.28;;;19.22;77.48
33845;BME280;20145;43.118;25.694;2023-09-19T06:36:07;99746.09;;;19.27;77.36
33845;BME280;20145;43.118;25.694;2023-09-19T06:38:33;99745.25;;;19.26;76.22
33845;BME280;20145;43.118;25.694;2023-09-19T06:41:02;99743.06;;;19.36;76.45
33845;BME280;20145;43.118;25.694;2023-09-19T06:43:32;99742.44;;;19.51;75.62
33845;BME280;20145;43.118;25.694;2023-09-19T06:45:59;99749.63;;;19.67;75.26
33845;BME280;20145;43.118;25.694;2023-09-19T06:48:25;99744.13;;;19.73;73.70
33845;BME280;20145;43.118;25.694;2023-09-19T06:50:55;99743.59;;;19.85;73.75
33845;BME280;20145;43.118;25.694;2023-09-19T06:53:21;99742.50;;;19.89;70.94
33845;BME280;20145;43.118;25.694;2023-09-19T06:55:52;99743.44;;;19.88;70.85
33845;BME280;20145;43.118;25.694;2023-09-19T06:58:18;99744.50;;;19.84;70.39
33845;BME280;20145;43.118;25.694;2023-09-19T07:00:45;99742.38;;;19.92;70.96
33845;BME280;20145;43.118;25.694;2023-09-19T07:03:13;99747.28;;;20.00;69.92
33845;BME280;20145;43.118;25.694;2023-09-19T07:05:40;99749.69;;;20.04;68.82
33845;BME280;20145;43.118;25.694;2023-09-19T07:08:07;99740.00;;;20.07;69.35
33845;BME280;20145;43.118;25.694;2023-09-19T07:10:33;99749.41;;;20.11;68.41
33845;BME280;20145;43.118;25.694;2023-09-19T07:15:27;99745.59;;;20.18;69.38
33845;BME280;20145;43.118;25.694;2023-09-19T07:17:53;99741.47;;;20.31;69.04
33845;BME280;20145;43.118;25.694;2023-09-19T07:20:20;99739.81;;;20.47;69.42
33845;BME280;20145;43.118;25.694;2023-09-19T07:22:46;99741.47;;;20.69;69.08
33845;BME280;20145;43.118;25.694;2023-09-19T07:25:13;99737.38;;;20.81;68.53
33845;BME280;20145;43.118;25.694;2023-09-19T07:27:41;99734.78;;;20.98;67.42
33845;BME280;20145;43.118;25.694;2023-09-19T07:30:07;99736.25;;;21.04;67.58
33845;BME280;20145;43.118;25.694;2023-09-19T07:32:33;99726.22;;;21.12;67.47
33845;BME280;20145;43.118;25.694;2023-09-19T07:35:02;99729.75;;;21.28;66.84
33845;BME280;20145;43.118;25.694;2023-09-19T07:37:29;99723.38;;;21.34;65.81
33845;BME280;20145;43.118;25.694;2023-09-19T07:39:56;99724.28;;;21.15;65.68
33845;BME280;20145;43.118;25.694;2023-09-19T07:42:22;99717.66;;;21.26;66.20
33845;BME280;20145;43.118;25.694;2023-09-19T07:44:47;99714.34;;;21.40;66.08
33845;BME280;20145;43.118;25.694;2023-09-19T07:47:16;99704.22;;;21.49;66.05
33845;BME280;20145;43.118;25.694;2023-09-19T07:49:42;99712.81;;;21.69;65.58
33845;BME280;20145;43.118;25.694;2023-09-19T07:52:08;99707.84;;;21.80;64.38
33845;BME280;20145;43.118;25.694;2023-09-19T07:54:35;99702.63;;;21.96;64.49
33845;BME280;20145;43.118;25.694;2023-09-19T07:57:02;99698.63;;;22.04;64.17
33845;BME280;20145;43.118;25.694;2023-09-19T07:59:27;99704.97;;;22.16;64.44
33845;BME280;20145;43.118;25.694;2023-09-19T08:01:53;99700.84;;;22.28;63.79
33845;BME280;20145;43.118;25.694;2023-09-19T08:04:19;99692.22;;;22.26;62.24
33845;BME280;20145;43.118;25.694;2023-09-19T08:06:45;99692.19;;;22.42;63.17
33845;BME280;20145;43.118;25.694;2023-09-19T08:09:11;99692.06;;;22.45;62.48
33845;BME280;20145;43.118;25.694;2023-09-19T08:11:39;99691.78;;;22.49;61.74
33845;BME280;20145;43.118;25.694;2023-09-19T08:14:05;99688.72;;;22.57;62.41
33845;BME280;20145;43.118;25.694;2023-09-19T08:16:32;99689.03;;;22.67;62.17
33845;BME280;20145;43.118;25.694;2023-09-19T08:18:58;99684.44;;;22.70;61.09
33845;BME280;20145;43.118;25.694;2023-09-19T08:21:24;99669.91;;;22.79;60.39
33845;BME280;20145;43.118;25.694;2023-09-19T08:23:51;99667.56;;;22.89;59.91
33845;BME280;20145;43.118;25.694;2023-09-19T08:26:16;99660.03;;;22.99;59.39
33845;BME280;20145;43.118;25.694;2023-09-19T08:28:42;99661.19;;;23.09;59.71
33845;BME280;20145;43.118;25.694;2023-09-19T08:31:08;99656.31;;;23.17;58.73
33845;BME280;20145;43.118;25.694;2023-09-19T08:33:37;99645.47;;;23.22;58.53
33845;BME280;20145;43.118;25.694;2023-09-19T08:36:03;99651.63;;;23.36;58.19
33845;BME280;20145;43.118;25.694;2023-09-19T08:38:31;99648.41;;;23.46;56.39
33845;BME280;20145;43.118;25.694;2023-09-19T08:40:59;99646.22;;;23.52;56.47
33845;BME280;20145;43.118;25.694;2023-09-19T08:43:27;99642.38;;;23.58;55.73
33845;BME280;20145;43.118;25.694;2023-09-19T08:45:58;99646.53;;;23.62;54.85
33845;BME280;20145;43.118;25.694;2023-09-19T08:48:29;99640.22;;;23.65;54.68
33845;BME280;20145;43.118;25.694;2023-09-19T08:56:18;99634.19;;;23.77;54.43
33845;BME280;20145;43.118;25.694;2023-09-19T08:58:49;99635.31;;;23.87;51.85
33845;BME280;20145;43.118;25.694;2023-09-19T09:01:16;99632.75;;;24.00;51.55
33845;BME280;20145;43.118;25.694;2023-09-19T09:03:51;99626.88;;;24.09;52.62
33845;BME280;20145;43.118;25.694;2023-09-19T09:06:19;99624.59;;;24.17;52.55
33845;BME280;20145;43.118;25.694;2023-09-19T09:08:46;99617.13;;;24.24;50.69
33845;BME280;20145;43.118;25.694;2023-09-19T09:11:13;99618.22;;;24.34;50.56
33845;BME280;20145;43.118;25.694;2023-09-19T09:13:40;99614.22;;;24.41;50.43
33845;BME280;20145;43.118;25.694;2023-09-19T09:16:07;99602.44;;;24.47;48.85
33845;BME280;20145;43.118;25.694;2023-09-19T09:18:33;99614.13;;;24.70;49.37
33845;BME280;20145;43.118;25.694;2023-09-19T09:20:58;99606.09;;;24.84;48.47
33845;BME280;20145;43.118;25.694;2023-09-19T09:23:26;99604.13;;;25.01;47.34
33845;BME280;20145;43.118;25.694;2023-09-19T09:25:55;99594.19;;;25.04;47.13
33845;BME280;20145;43.118;25.694;2023-09-19T09:28:29;99601.28;;;25.17;48.02
33845;BME280;20145;43.118;25.694;2023-09-19T09:30:57;99588.69;;;25.33;47.10
33845;BME280;20145;43.118;25.694;2023-09-19T09:33:24;99599.44;;;25.55;45.56
33845;BME280;20145;43.118;25.694;2023-09-19T09:36:00;99601.94;;;25.70;44.19
33845;BME280;20145;43.118;25.694;2023-09-19T09:38:28;99595.88;;;25.80;45.55
33845;BME280;20145;43.118;25.694;2023-09-19T09:40:58;99583.22;;;25.86;41.70
33845;BME280;20145;43.118;25.694;2023-09-19T09:43:30;99590.34;;;25.96;41.65
33845;BME280;20145;43.118;25.694;2023-09-19T09:46:11;99591.38;;;26.07;45.23
33845;BME280;20145;43.118;25.694;2023-09-19T09:49:01;99585.78;;;26.22;44.81
33845;BME280;20145;43.118;25.694;2023-09-19T09:51:40;99594.06;;;26.42;45.70
33845;BME280;20145;43.118;25.694;2023-09-19T09:54:18;99590.78;;;26.38;43.74
33845;BME280;20145;43.118;25.694;2023-09-19T09:59:47;99593.63;;;26.35;44.79
33845;BME280;20145;43.118;25.694;2023-09-19T10:02:20;99596.19;;;26.37;44.52
33845;BME280;20145;43.118;25.694;2023-09-19T10:04:56;99594.31;;;26.50;44.41
33845;BME280;20145;43.118;25.694;2023-09-19T10:07:50;99583.28;;;26.56;44.10
33845;BME280;20145;43.118;25.694;2023-09-19T10:10:37;99583.09;;;26.70;44.64
33845;BME280;20145;43.118;25.694;2023-09-19T10:13:25;99577.91;;;26.69;42.77
33845;BME280;20145;43.118;25.694;2023-09-19T10:15:55;99581.72;;;26.54;40.54
33845;BME280;20145;43.118;25.694;2023-09-19T10:18:27;99579.56;;;26.35;41.58
33845;BME280;20145;43.118;25.694;2023-09-19T10:20:55;99567.22;;;26.46;41.04
33845;BME280;20145;43.118;25.694;2023-09-19T10:23:22;99566.44;;;26.57;40.77
33845;BME280;20145;43.118;25.694;2023-09-19T10:25:49;99571.72;;;26.57;40.43
33845;BME280;20145;43.118;25.694;2023-09-19T10:28:17;99575.97;;;26.60;42.31
33845;BME280;20145;43.118;25.694;2023-09-19T10:30:48;99571.38;;;26.51;40.92
33845;BME280;20145;43.118;25.694;2023-09-19T10:33:17;99580.91;;;26.40;41.22
33845;BME280;20145;43.118;25.694;2023-09-19T10:35:48;99571.44;;;26.14;38.99
33845;BME280;20145;43.118;25.694;2023-09-19T10:38:18;99566.16;;;26.14;40.47
33845;BME280;20145;43.118;25.694;2023-09-19T10:40:52;99557.75;;;26.20;40.20
33845;BME280;20145;43.118;25.694;2023-09-19T10:43:19;99565.50;;;26.34;41.70
33845;BME280;20145;43.118;25.694;2023-09-19T10:45:48;99555.69;;;26.47;41.52
33845;BME280;20145;43.118;25.694;2023-09-19T10:48:17;99557.81;;;26.66;42.23
33845;BME280;20145;43.118;25.694;2023-09-19T10:50:51;99557.91;;;26.65;41.33
33845;BME280;20145;43.118;25.694;2023-09-19T10:53:20;99562.97;;;26.57;41.76
33845;BME280;20145;43.118;25.694;2023-09-19T10:55:52;99556.63;;;26.46;42.72
33845;BME280;20145;43.118;25.694;2023-09-19T10:58:30;99555.78;;;26.46;42.87
33845;BME280;20145;43.118;25.694;2023-09-19T11:01:00;99554.22;;;26.43;41.86
33845;BME280;20145;43.118;25.694;2023-09-19T11:03:33;99546.78;;;26.48;41.87
33845;BME280;20145;43.118;25.694;2023-09-19T11:06:18;99544.94;;;26.62;41.21
33845;BME280;20145;43.118;25.694;2023-09-19T11:09:03;99553.88;;;26.83;42.56
33845;BME280;20145;43.118;25.694;2023-09-19T11:30:38;99542.44;;;27.50;40.82
33845;BME280;20145;43.118;25.694;2023-09-19T11:33:29;99533.50;;;27.51;42.27
33845;BME280;20145;43.118;25.694;2023-09-19T11:36:15;99544.31;;;27.71;41.74
33845;BME280;20145;43.118;25.694;2023-09-19T11:49:17;99526.72;;;28.76;38.89
33845;BME280;20145;43.118;25.694;2023-09-19T11:51:51;99524.88;;;28.98;37.90
33845;BME280;20145;43.118;25.694;2023-09-19T11:54:17;99519.22;;;29.12;37.75
33845;BME280;20145;43.118;25.694;2023-09-19T11:56:54;99512.84;;;29.24;38.22
33845;BME280;20145;43.118;25.694;2023-09-19T11:59:21;99519.28;;;29.22;36.39
33845;BME280;20145;43.118;25.694;2023-09-19T12:01:54;99516.94;;;29.38;36.54
33845;BME280;20145;43.118;25.694;2023-09-19T12:07:13;99498.06;;;29.41;35.70
33845;BME280;20145;43.118;25.694;2023-09-19T12:10:03;99511.63;;;29.48;36.19
33845;BME280;20145;43.118;25.694;2023-09-19T12:12:30;99510.19;;;28.94;34.80
33845;BME280;20145;43.118;25.694;2023-09-19T12:14:56;99506.34;;;28.77;34.66
33845;BME280;20145;43.118;25.694;2023-09-19T12:17:36;99489.91;;;28.41;35.37
33845;BME280;20145;43.118;25.694;2023-09-19T12:20:02;99482.59;;;28.33;37.06
33845;BME280;20145;43.118;25.694;2023-09-19T12:22:44;99495.72;;;28.35;36.44
33845;BME280;20145;43.118;25.694;2023-09-19T12:25:11;99494.34;;;28.40;36.30
33845;BME280;20145;43.118;25.694;2023-09-19T12:27:44;99467.38;;;28.14;35.35
33845;BME280;20145;43.118;25.694;2023-09-19T12:30:13;99481.56;;;28.24;38.02
33845;BME280;20145;43.118;25.694;2023-09-19T12:32:45;99483.94;;;28.28;36.88
33845;BME280;20145;43.118;25.694;2023-09-19T12:35:27;99484.84;;;28.38;34.76
33845;BME280;20145;43.118;25.694;2023-09-19T12:37:54;99478.50;;;28.29;37.85
33845;BME280;20145;43.118;25.694;2023-09-19T12:40:21;99479.47;;;28.28;35.67
33845;BME280;20145;43.118;25.694;2023-09-19T12:42:49;99483.66;;;28.10;36.14
33845;BME280;20145;43.118;25.694;2023-09-19T12:45:15;99490.94;;;28.08;36.29
33845;BME280;20145;43.118;25.694;2023-09-19T12:53:44;99482.06;;;27.97;36.10
33845;BME280;20145;43.118;25.694;2023-09-19T12:56:13;99484.72;;;27.97;36.93
33845;BME280;20145;43.118;25.694;2023-09-19T12:58:57;99481.84;;;27.89;36.13
33845;BME280;20145;43.118;25.694;2023-09-19T13:01:30;99483.78;;;27.76;35.95
33845;BME280;20145;43.118;25.694;2023-09-19T13:07:00;99473.75;;;27.58;35.16
33845;BME280;20145;43.118;25.694;2023-09-19T13:09:26;99476.63;;;27.55;37.84
33845;BME280;20145;43.118;25.694;2023-09-19T13:12:05;99477.84;;;27.51;37.48
33845;BME280;20145;43.118;25.694;2023-09-19T13:14:32;99474.94;;;27.54;36.12
33845;BME280;20145;43.118;25.694;2023-09-19T13:17:06;99475.66;;;27.56;37.61
33845;BME280;20145;43.118;25.694;2023-09-19T13:19:42;99478.31;;;27.56;38.02
33845;BME280;20145;43.118;25.694;2023-09-19T13:22:44;99482.06;;;27.54;35.89
33845;BME280;20145;43.118;25.694;2023-09-19T13:25:21;99470.63;;;27.53;35.58
33845;BME280;20145;43.118;25.694;2023-09-19T13:27:48;99474.34;;;27.51;35.13
33845;BME280;20145;43.118;25.694;2023-09-19T13:30:18;99469.66;;;27.43;36.44
33845;BME280;20145;43.118;25.694;2023-09-19T13:32:44;99453.72;;;27.22;36.74
33845;BME280;20145;43.118;25.694;2023-09-19T13:35:13;99452.25;;;27.18;36.96
33845;BME280;20145;43.118;25.694;2023-09-19T13:37:41;99463.47;;;27.22;37.01
33845;BME280;20145;43.118;25.694;2023-09-19T13:40:11;99450.81;;;27.25;38.20
33845;BME280;20145;43.118;25.694;2023-09-19T13:42:38;99471.88;;;27.27;37.11
33845;BME280;20145;43.118;25.694;2023-09-19T13:45:04;99470.53;;;27.32;37.85
33845;BME280;20145;43.118;25.694;2023-09-19T13:47:31;99462.59;;;27.32;34.90
33845;BME280;20145;43.118;25.694;2023-09-19T13:50:01;99454.16;;;27.39;36.23
33845;BME280;20145;43.118;25.694;2023-09-19T13:52:29;99458.75;;;27.36;36.15
33845;BME280;20145;43.118;25.694;2023-09-19T13:54:56;99465.72;;;27.38;35.92
33845;BME280;20145;43.118;25.694;2023-09-19T13:57:25;99454.03;;;27.40;36.46
33845;BME280;20145;43.118;25.694;2023-09-19T13:59:52;99456.56;;;27.42;36.33
33845;BME280;20145;43.118;25.694;2023-09-19T14:02:20;99448.03;;;27.38;34.75
33845;BME280;20145;43.118;25.694;2023-09-19T14:04:48;99448.03;;;27.38;34.92
33845;BME280;20145;43.118;25.694;2023-09-19T14:07:15;99437.44;;;27.38;36.11
33845;BME280;20145;43.118;25.694;2023-09-19T14:09:41;99435.38;;;27.30;36.70
33845;BME280;20145;43.118;25.694;2023-09-19T14:12:07;99442.63;;;27.28;37.45